createdAt,value
2019-02-24T00:02:06.211Z,7.58
2019-02-24T00:04:48.449Z,6.28
2019-02-24T00:07:37.941Z,6.28
2019-02-24T00:10:13.272Z,6.90
2019-02-24T00:12:49.297Z,6.90
2019-02-24T00:15:24.832Z,8.28
2019-02-24T00:18:00.949Z,7.03
2019-02-24T00:20:36.681Z,7.05
2019-02-24T00:23:19.161Z,4.37
2019-02-24T00:25:54.903Z,5.90
2019-02-24T00:28:37.134Z,6.62
2019-02-24T00:31:13.022Z,7.60
2019-02-24T00:33:48.273Z,4.42
2019-02-24T00:36:24.053Z,8.65
2019-02-24T00:39:00.115Z,9.40
2019-02-24T00:41:36.359Z,7.85
2019-02-24T00:44:11.726Z,7.58
2019-02-24T00:46:47.476Z,7.53
2019-02-24T00:49:23.275Z,4.47
2019-02-24T00:52:05.455Z,4.90
2019-02-24T00:54:41.493Z,5.42
2019-02-24T00:57:17.234Z,5.97
2019-02-24T00:59:53.245Z,6.20
2019-02-24T01:02:35.497Z,4.53
2019-02-24T01:05:10.648Z,6.83
2019-02-24T01:07:46.019Z,6.22
2019-02-24T01:10:28.748Z,5.08
2019-02-24T01:13:10.242Z,6.80
2019-02-24T01:15:52.883Z,6.35
2019-02-24T01:18:41.125Z,6.20
2019-02-24T01:21:17.005Z,4.97
2019-02-24T01:23:59.306Z,7.00
2019-02-24T01:26:34.644Z,3.92
2019-02-24T01:29:16.637Z,7.00
2019-02-24T01:31:51.849Z,6.25
2019-02-24T01:34:33.634Z,4.83
2019-02-24T01:37:08.797Z,5.25
2019-02-24T01:39:44.726Z,5.20
2019-02-24T01:42:20.320Z,6.17
2019-02-24T01:45:02.766Z,6.90
2019-02-24T01:47:38.751Z,6.15
2019-02-24T01:50:20.513Z,5.75
2019-02-24T01:52:49.695Z,6.28
2019-02-24T01:55:31.697Z,5.75
2019-02-24T01:58:13.708Z,5.08
2019-02-24T02:00:56.401Z,5.28
2019-02-24T02:03:37.885Z,6.00
2019-02-24T02:06:13.694Z,5.80
2019-02-24T02:08:55.810Z,4.83
2019-02-24T02:11:31.459Z,5.17
2019-02-24T02:14:07.451Z,5.85
2019-02-24T02:16:49.942Z,5.80
2019-02-24T02:19:25.697Z,5.47
2019-02-24T02:22:08.294Z,7.97
2019-02-24T02:24:50.643Z,6.40
2019-02-24T02:27:26.384Z,6.97
2019-02-24T02:30:08.775Z,5.12
2019-02-24T02:32:50.365Z,6.45
2019-02-24T02:35:26.265Z,5.17
2019-02-24T02:38:02.280Z,6.75
2019-02-24T02:40:44.260Z,4.78
2019-02-24T02:43:19.763Z,5.28
2019-02-24T02:45:54.999Z,7.22
2019-02-24T02:48:24.168Z,7.85
2019-02-24T02:51:06.383Z,6.70
2019-02-24T02:53:48.959Z,7.65
2019-02-24T02:56:31.708Z,7.17
2019-02-24T02:59:07.890Z,8.00
2019-02-24T03:01:37.053Z,7.35
2019-02-24T03:04:06.236Z,8.38
2019-02-24T03:06:52.842Z,8.05
2019-02-24T03:09:22.011Z,5.00
2019-02-24T03:11:58.263Z,9.18
2019-02-24T03:14:27.521Z,5.97
2019-02-24T03:17:03.428Z,9.10
2019-02-24T03:19:32.604Z,8.43
2019-02-24T03:22:08.197Z,8.80
2019-02-24T03:24:37.369Z,7.20
2019-02-24T03:27:13.137Z,9.50
2019-02-24T03:29:48.758Z,7.80
2019-02-24T03:32:17.918Z,7.47
2019-02-24T03:34:53.203Z,7.60
2019-02-24T03:37:29.421Z,7.92
2019-02-24T03:39:58.600Z,8.03
2019-02-24T03:42:34.784Z,8.28
2019-02-24T03:45:12.204Z,9.33
2019-02-24T03:47:41.378Z,9.80
2019-02-24T03:50:16.751Z,5.53
2019-02-24T03:52:52.200Z,7.95
2019-02-24T03:55:34.998Z,7.62
2019-02-24T03:58:24.638Z,8.63
2019-02-24T04:01:00.113Z,9.28
2019-02-24T04:03:36.266Z,9.05
2019-02-24T04:06:12.586Z,9.10
2019-02-24T04:08:47.928Z,5.92
2019-02-24T04:11:17.105Z,4.62
2019-02-24T04:13:58.842Z,5.85
2019-02-24T04:16:33.998Z,7.37
2019-02-24T04:19:15.878Z,6.40
2019-02-24T04:21:51.356Z,6.92
2019-02-24T04:24:33.220Z,7.00
2019-02-24T04:27:02.452Z,8.08
2019-02-24T04:29:38.532Z,7.03
2019-02-24T04:32:20.223Z,7.67
2019-02-24T04:34:56.388Z,7.12
2019-02-24T04:37:32.404Z,7.17
2019-02-24T04:40:15.742Z,8.23
2019-02-24T04:42:51.646Z,6.37
2019-02-24T04:45:27.450Z,7.95
2019-02-24T04:48:02.816Z,5.53
2019-02-24T04:50:38.409Z,8.33
2019-02-24T04:53:13.798Z,7.97
2019-02-24T04:55:55.642Z,7.95
2019-02-24T04:58:31.707Z,6.95
2019-02-24T05:01:14.476Z,4.78
2019-02-24T05:03:50.251Z,5.73
2019-02-24T05:06:32.081Z,6.87
2019-02-24T05:09:01.201Z,6.33
2019-02-24T05:11:43.127Z,4.17
2019-02-24T05:14:18.948Z,6.33
2019-02-24T05:17:01.121Z,6.60
2019-02-24T05:19:43.658Z,9.08
2019-02-24T05:22:12.836Z,4.95
2019-02-24T05:24:48.640Z,5.60
2019-02-24T05:27:30.256Z,4.80
2019-02-24T05:30:06.299Z,5.03
2019-02-24T05:32:42.384Z,7.37
2019-02-24T05:35:17.587Z,6.40
2019-02-24T05:37:59.248Z,6.22
2019-02-24T05:40:34.399Z,5.45
2019-02-24T05:43:10.139Z,5.62
2019-02-24T05:45:45.838Z,5.58
2019-02-24T05:48:27.828Z,4.17
2019-02-24T05:51:09.918Z,6.35
2019-02-24T05:53:45.397Z,5.55
2019-02-24T05:56:27.749Z,7.35
2019-02-24T05:59:03.058Z,7.17
2019-02-24T06:01:45.055Z,6.62
2019-02-24T06:04:33.485Z,6.28
2019-02-24T06:07:09.798Z,5.58
2019-02-24T06:09:45.238Z,7.58
2019-02-24T06:12:21.227Z,8.23
2019-02-24T06:14:57.087Z,7.47
2019-02-24T06:17:32.585Z,6.78
2019-02-24T06:20:14.014Z,8.23
2019-02-24T06:22:56.188Z,7.08
2019-02-24T06:25:31.456Z,7.60
2019-02-24T06:28:06.774Z,8.10
2019-02-24T06:30:48.719Z,8.85
2019-02-24T06:33:31.237Z,8.30
2019-02-24T06:36:07.181Z,13.93
2019-02-24T06:38:43.504Z,12.33
2019-02-24T06:41:12.672Z,12.35
2019-02-24T06:43:54.798Z,8.18
2019-02-24T06:46:30.570Z,8.93
2019-02-24T06:49:12.965Z,11.83
2019-02-24T06:51:55.241Z,9.23
2019-02-24T06:54:37.621Z,6.22
2019-02-24T06:57:13.134Z,8.43
2019-02-24T06:59:55.560Z,7.22
2019-02-24T07:02:38.080Z,7.45
2019-02-24T07:05:13.283Z,8.15
2019-02-24T07:07:55.084Z,8.60
2019-02-24T07:10:30.207Z,7.90
2019-02-24T07:13:12.240Z,7.80
2019-02-24T07:15:47.413Z,8.48
2019-02-24T07:18:23.605Z,8.48
2019-02-24T07:20:59.140Z,7.72
2019-02-24T07:23:41.400Z,9.28
2019-02-24T07:26:17.047Z,6.85
2019-02-24T07:28:59.871Z,9.63
2019-02-24T07:31:41.704Z,7.93
2019-02-24T07:34:16.933Z,15.40
2019-02-24T07:36:53.138Z,14.90
2019-02-24T07:39:35.942Z,11.70
2019-02-24T07:42:11.143Z,16.40
2019-02-24T07:44:53.693Z,15.48
2019-02-24T07:47:29.625Z,26.73
2019-02-24T07:50:05.545Z,13.03
2019-02-24T07:52:40.748Z,12.93
2019-02-24T07:55:09.928Z,11.28
2019-02-24T07:57:52.692Z,11.38
2019-02-24T08:00:32.280Z,10.33
2019-02-24T08:03:05.069Z,9.30
2019-02-24T08:05:41.154Z,6.12
2019-02-24T08:08:17.163Z,9.83
2019-02-24T08:10:52.635Z,8.08
2019-02-24T08:13:28.533Z,9.30
2019-02-24T08:16:04.314Z,11.03
2019-02-24T08:18:49.040Z,9.65
2019-02-24T08:21:17.851Z,8.28
2019-02-24T08:23:54.055Z,9.53
2019-02-24T08:26:29.936Z,8.30
2019-02-24T08:29:05.983Z,7.95
2019-02-24T08:31:47.503Z,9.00
2019-02-24T08:34:23.472Z,6.90
2019-02-24T08:37:04.902Z,8.73
2019-02-24T08:39:46.865Z,6.37
2019-02-24T08:42:22.322Z,8.65
2019-02-24T08:45:04.867Z,8.18
2019-02-24T08:47:46.824Z,7.35
2019-02-24T08:50:23.040Z,8.28
2019-02-24T08:52:58.409Z,6.78
2019-02-24T08:55:40.284Z,8.40
2019-02-24T08:58:29.011Z,8.98
2019-02-24T09:01:10.566Z,8.53
2019-02-24T09:03:46.626Z,8.95
2019-02-24T09:06:28.625Z,7.97
2019-02-24T09:09:04.328Z,9.83
2019-02-24T09:11:40.221Z,9.80
2019-02-24T09:14:15.693Z,7.58
2019-02-24T09:16:57.854Z,9.33
2019-02-24T09:19:40.073Z,10.63
2019-02-24T09:22:15.309Z,10.90
2019-02-24T09:24:57.781Z,10.32
2019-02-24T09:27:33.101Z,10.60
2019-02-24T09:30:13.583Z,10.40
2019-02-24T09:32:49.794Z,10.45
2019-02-24T09:35:25.243Z,9.38
2019-02-24T09:38:06.803Z,10.48
2019-02-24T09:40:42.797Z,8.90
2019-02-24T09:43:18.976Z,10.05
2019-02-24T09:45:54.865Z,11.38
2019-02-24T09:48:37.196Z,9.68
2019-02-24T09:51:13.212Z,9.40
2019-02-24T09:53:48.551Z,9.80
2019-02-24T09:56:36.923Z,7.72
2019-02-24T09:59:33.577Z,8.60
2019-02-24T10:02:09.791Z,9.58
2019-02-24T10:04:53.038Z,9.58
2019-02-24T10:07:28.545Z,10.15
2019-02-24T10:10:04.616Z,8.68
2019-02-24T10:12:40.264Z,8.08
2019-02-24T10:15:21.195Z,8.30
2019-02-24T10:17:56.844Z,8.00
2019-02-24T10:20:39.663Z,8.50
2019-02-24T10:23:15.728Z,7.97
2019-02-24T10:25:58.254Z,7.50
2019-02-24T10:28:40.613Z,7.70
2019-02-24T10:31:23.223Z,7.83
2019-02-24T10:33:59.053Z,7.83
2019-02-24T10:36:41.468Z,4.75
2019-02-24T10:39:19.559Z,6.58
2019-02-24T10:42:02.750Z,6.70
2019-02-24T10:44:39.156Z,4.85
2019-02-24T10:47:21.760Z,5.22
2019-02-24T10:49:57.093Z,4.90
2019-02-24T10:52:39.214Z,5.10
2019-02-24T10:55:14.443Z,5.55
2019-02-24T10:57:55.788Z,6.08
2019-02-24T11:00:37.976Z,6.20
2019-02-24T11:03:19.675Z,6.03
2019-02-24T11:05:54.931Z,6.37
2019-02-24T11:08:30.197Z,6.20
2019-02-24T11:11:13.284Z,6.03
2019-02-24T11:13:49.116Z,4.80
2019-02-24T11:16:24.539Z,5.53
2019-02-24T11:19:06.948Z,4.08
2019-02-24T11:21:49.019Z,6.55
2019-02-24T11:24:24.833Z,6.15
2019-02-24T11:27:06.997Z,6.78
2019-02-24T11:29:49.372Z,6.78
2019-02-24T11:32:24.795Z,5.95
2019-02-24T11:35:06.906Z,6.55
2019-02-24T11:37:42.918Z,5.78
2019-02-24T11:40:31.411Z,5.62
2019-02-24T11:43:15.462Z,5.10
2019-02-24T11:45:50.804Z,5.90
2019-02-24T11:48:26.792Z,5.80
2019-02-24T11:51:09.303Z,5.50
2019-02-24T11:53:51.277Z,3.72
2019-02-24T11:56:26.544Z,5.42
2019-02-24T11:59:09.111Z,5.28
2019-02-24T12:01:50.905Z,4.53
2019-02-24T12:04:26.301Z,4.35
2019-02-24T12:07:01.599Z,5.22
2019-02-24T12:09:44.221Z,4.33
2019-02-24T12:12:22.158Z,5.20
2019-02-24T12:14:57.403Z,5.35
2019-02-24T12:17:39.579Z,5.50
2019-02-24T12:20:18.178Z,4.92
2019-02-24T12:23:09.546Z,5.10
2019-02-24T12:25:52.242Z,4.42
2019-02-24T12:28:29.008Z,5.00
2019-02-24T12:31:11.145Z,4.42
2019-02-24T12:33:46.797Z,4.08
2019-02-24T12:36:28.806Z,4.35
2019-02-24T12:39:07.397Z,4.25
2019-02-24T12:41:42.806Z,4.45
2019-02-24T12:44:18.982Z,4.95
2019-02-24T12:47:00.914Z,4.05
2019-02-24T12:49:36.833Z,4.12
2019-02-24T12:52:20.687Z,3.72
2019-02-24T12:55:03.062Z,3.90
2019-02-24T12:57:39.252Z,3.95
2019-02-24T13:00:15.063Z,4.47
2019-02-24T13:02:51.506Z,4.20
2019-02-24T13:05:27.504Z,4.17
2019-02-24T13:08:09.423Z,4.12
2019-02-24T13:10:45.201Z,5.65
2019-02-24T13:13:21.263Z,5.15
2019-02-24T13:16:03.246Z,5.95
2019-02-24T13:18:46.150Z,5.28
2019-02-24T13:21:24.602Z,5.27
2019-02-24T13:24:00.138Z,6.42
2019-02-24T13:26:42.283Z,7.95
2019-02-24T13:29:18.152Z,6.08
2019-02-24T13:32:00.642Z,7.20
2019-02-24T13:34:35.991Z,5.45
2019-02-24T13:37:05.208Z,5.83
2019-02-24T13:39:41.459Z,5.30
2019-02-24T13:42:17.049Z,5.42
2019-02-24T13:44:52.522Z,4.85
2019-02-24T13:47:35.110Z,4.60
2019-02-24T13:50:17.320Z,4.62
2019-02-24T13:52:53.081Z,5.17
2019-02-24T13:55:29.527Z,4.78
2019-02-24T13:58:12.411Z,4.78
2019-02-24T14:00:54.805Z,3.07
2019-02-24T14:03:37.085Z,4.10
2019-02-24T14:06:13.265Z,4.33
2019-02-24T14:08:49.420Z,3.62
2019-02-24T14:11:25.407Z,4.25
2019-02-24T14:14:07.194Z,3.72
2019-02-24T14:16:42.970Z,3.00
2019-02-24T14:19:25.333Z,3.77
2019-02-24T14:21:54.517Z,4.45
2019-02-24T14:24:44.136Z,4.83
2019-02-24T14:27:33.262Z,3.90
2019-02-24T14:30:18.755Z,4.58
2019-02-24T14:33:01.311Z,4.60
2019-02-24T14:35:36.759Z,5.42
2019-02-24T14:38:19.549Z,5.20
2019-02-24T14:40:54.964Z,5.10
2019-02-24T14:43:37.247Z,5.12
2019-02-24T14:46:13.278Z,5.47
2019-02-24T14:48:55.787Z,7.70
2019-02-24T14:51:31.496Z,7.40
2019-02-24T14:54:13.780Z,7.10
2019-02-24T14:56:55.891Z,10.85
2019-02-24T14:59:32.082Z,6.60
2019-02-24T15:02:07.781Z,6.08
2019-02-24T15:04:43.582Z,5.75
2019-02-24T15:07:19.425Z,5.28
2019-02-24T15:10:01.905Z,7.65
2019-02-24T15:12:31.368Z,6.50
2019-02-24T15:15:13.009Z,6.80
2019-02-24T15:18:02.366Z,6.35
2019-02-24T15:20:38.882Z,7.87
2019-02-24T15:23:21.099Z,9.50
2019-02-24T15:25:56.733Z,7.05
2019-02-24T15:28:38.609Z,7.87
2019-02-24T15:31:16.458Z,8.28
2019-02-24T15:33:58.722Z,9.25
2019-02-24T15:36:35.776Z,10.38
2019-02-24T15:39:17.774Z,9.88
2019-02-24T15:41:53.694Z,8.18
2019-02-24T15:44:35.529Z,8.15
2019-02-24T15:47:11.206Z,6.62
2019-02-24T15:49:54.024Z,5.60
2019-02-24T15:52:29.512Z,6.67
2019-02-24T15:55:11.665Z,10.53
2019-02-24T15:57:54.840Z,10.93
2019-02-24T16:00:38.441Z,11.85
2019-02-24T16:03:13.860Z,8.65
2019-02-24T16:05:56.137Z,8.80
2019-02-24T16:08:37.997Z,6.60
2019-02-24T16:11:20.733Z,7.20
2019-02-24T16:13:56.656Z,8.48
2019-02-24T16:16:38.843Z,8.40
2019-02-24T16:19:14.163Z,8.28
2019-02-24T16:21:50.082Z,7.58
2019-02-24T16:24:25.843Z,10.93
2019-02-24T16:27:02.068Z,18.35
2019-02-24T16:29:37.941Z,13.25
2019-02-24T16:32:19.871Z,14.23
2019-02-24T16:34:56.579Z,11.43
2019-02-24T16:37:32.376Z,13.03
2019-02-24T16:40:09.074Z,13.05
2019-02-24T16:42:44.606Z,10.72
2019-02-24T16:45:26.746Z,8.18
2019-02-24T16:48:02.079Z,10.65
2019-02-24T16:50:37.851Z,18.60
2019-02-24T16:53:14.040Z,11.05
2019-02-24T16:55:49.524Z,11.03
2019-02-24T16:58:25.665Z,10.80
2019-02-24T17:01:02.307Z,8.63
2019-02-24T17:03:43.721Z,8.50
2019-02-24T17:06:19.156Z,8.18
2019-02-24T17:09:03.312Z,8.25
2019-02-24T17:11:38.927Z,8.50
2019-02-24T17:14:24.761Z,7.60
2019-02-24T17:17:01.845Z,7.95
2019-02-24T17:19:38.110Z,6.72
2019-02-24T17:22:20.619Z,6.58
2019-02-24T17:24:56.429Z,6.50
2019-02-24T17:27:38.936Z,6.90
2019-02-24T17:30:12.393Z,6.58
2019-02-24T17:32:53.880Z,7.33
2019-02-24T17:35:30.093Z,8.00
2019-02-24T17:38:13.384Z,9.43
2019-02-24T17:40:56.037Z,9.08
2019-02-24T17:43:25.241Z,9.10
2019-02-24T17:46:07.424Z,9.58
2019-02-24T17:48:49.926Z,7.78
2019-02-24T17:51:25.738Z,9.30
2019-02-24T17:54:01.388Z,9.05
2019-02-24T17:56:44.338Z,6.40
2019-02-24T17:59:19.576Z,7.53
2019-02-24T18:02:02.125Z,7.25
2019-02-24T18:04:31.325Z,7.85
2019-02-24T18:07:07.443Z,11.50
2019-02-24T18:09:43.130Z,10.82
2019-02-24T18:12:25.883Z,10.98
2019-02-24T18:15:08.994Z,15.70
2019-02-24T18:17:50.880Z,14.83
2019-02-24T18:20:26.154Z,18.77
2019-02-24T18:23:08.328Z,12.23
2019-02-24T18:25:44.123Z,12.23
2019-02-24T18:28:26.578Z,8.58
2019-02-24T18:31:02.691Z,19.35
2019-02-24T18:33:38.655Z,10.80
2019-02-24T18:36:14.996Z,10.03
2019-02-24T18:38:57.301Z,10.78
2019-02-24T18:41:32.642Z,8.70
2019-02-24T18:44:08.317Z,10.08
2019-02-24T18:46:44.149Z,9.98
2019-02-24T18:49:21.276Z,8.78
2019-02-24T18:51:58.966Z,8.73
2019-02-24T18:54:34.971Z,9.25
2019-02-24T18:57:10.637Z,10.68
2019-02-24T18:59:53.665Z,9.55
2019-02-24T19:02:29.134Z,9.88
2019-02-24T19:05:11.854Z,13.05
2019-02-24T19:07:47.649Z,12.23
2019-02-24T19:10:30.909Z,14.30
2019-02-24T19:13:00.206Z,17.95
2019-02-24T19:15:36.419Z,19.05
2019-02-24T19:18:12.653Z,18.87
2019-02-24T19:20:54.746Z,12.07
2019-02-24T19:23:37.548Z,9.50
2019-02-24T19:26:21.387Z,8.00
2019-02-24T19:28:58.371Z,8.48
2019-02-24T19:31:33.900Z,6.60
2019-02-24T19:34:09.641Z,8.10
2019-02-24T19:36:52.035Z,8.75
2019-02-24T19:39:34.398Z,9.80
2019-02-24T19:42:09.896Z,10.00
2019-02-24T19:44:45.348Z,7.10
2019-02-24T19:47:27.753Z,10.45
2019-02-24T19:50:03.003Z,8.75
2019-02-24T19:52:45.499Z,8.60
2019-02-24T19:55:22.046Z,7.40
2019-02-24T19:58:04.634Z,7.62
2019-02-24T20:00:40.256Z,6.10
2019-02-24T20:03:22.578Z,4.58
2019-02-24T20:06:05.088Z,4.67
2019-02-24T20:08:41.025Z,6.45
2019-02-24T20:11:23.213Z,5.92
2019-02-24T20:13:52.427Z,8.15
2019-02-24T20:16:34.732Z,7.40
2019-02-24T20:19:10.442Z,5.65
2019-02-24T20:21:45.863Z,6.45
2019-02-24T20:24:32.977Z,7.58
2019-02-24T20:27:04.984Z,8.80
2019-02-24T20:29:47.728Z,8.88
2019-02-24T20:32:16.908Z,7.08
2019-02-24T20:34:59.781Z,7.17
2019-02-24T20:37:35.757Z,8.10
2019-02-24T20:40:21.458Z,7.65
2019-02-24T20:42:57.550Z,10.65
2019-02-24T20:45:34.074Z,8.30
2019-02-24T20:48:03.274Z,8.83
2019-02-24T20:50:51.118Z,10.90
2019-02-24T20:53:20.328Z,11.93
2019-02-24T20:56:02.528Z,9.73
2019-02-24T20:58:44.131Z,10.20
2019-02-24T21:01:20.399Z,11.48
2019-02-24T21:03:49.567Z,13.10
2019-02-24T21:06:25.463Z,9.88
2019-02-24T21:09:06.879Z,13.30
2019-02-24T21:11:43.189Z,10.93
2019-02-24T21:14:19.367Z,12.37
2019-02-24T21:16:55.536Z,13.95
2019-02-24T21:19:31.811Z,13.22
2019-02-24T21:22:07.960Z,11.08
2019-02-24T21:24:44.048Z,13.00
2019-02-24T21:27:25.661Z,11.85
2019-02-24T21:30:00.950Z,8.43
2019-02-24T21:32:43.394Z,13.53
2019-02-24T21:35:18.620Z,10.70
2019-02-24T21:38:01.046Z,12.03
2019-02-24T21:40:37.154Z,12.60
2019-02-24T21:43:19.534Z,9.40
2019-02-24T21:45:55.550Z,12.75
2019-02-24T21:48:31.402Z,12.88
2019-02-24T21:51:06.663Z,12.18
2019-02-24T21:53:41.939Z,8.95
2019-02-24T21:56:17.255Z,15.00
2019-02-24T21:58:53.372Z,15.08
2019-02-24T22:01:35.684Z,13.35
2019-02-24T22:04:11.438Z,14.43
2019-02-24T22:06:54.029Z,10.18
2019-02-24T22:09:36.332Z,15.55
2019-02-24T22:12:12.434Z,14.15
2019-02-24T22:14:54.000Z,13.48
2019-02-24T22:17:29.509Z,8.78
2019-02-24T22:20:20.674Z,16.02
2019-02-24T22:23:03.614Z,14.80
2019-02-24T22:25:39.607Z,14.85
2019-02-24T22:28:14.869Z,14.47
2019-02-24T22:30:50.599Z,14.68
2019-02-24T22:33:19.793Z,12.88
2019-02-24T22:35:55.455Z,17.20
2019-02-24T22:38:31.669Z,17.75
2019-02-24T22:41:00.862Z,15.30
2019-02-24T22:43:37.101Z,13.32
2019-02-24T22:46:12.704Z,18.32
2019-02-24T22:48:48.256Z,15.90
2019-02-24T22:51:24.146Z,18.02
2019-02-24T22:54:07.198Z,17.92
2019-02-24T22:56:49.552Z,19.55
2019-02-24T22:59:30.798Z,13.90
2019-02-24T23:02:13.163Z,19.57
2019-02-24T23:04:42.338Z,16.35
2019-02-24T23:07:11.520Z,19.70
2019-02-24T23:09:47.690Z,19.67
2019-02-24T23:12:23.365Z,16.00
2019-02-24T23:14:58.693Z,16.93
2019-02-24T23:17:41.468Z,17.37
2019-02-24T23:20:10.712Z,20.95
2019-02-24T23:22:39.891Z,19.57
2019-02-24T23:25:15.413Z,18.48
2019-02-24T23:27:57.065Z,20.37
2019-02-24T23:30:32.884Z,19.67
2019-02-24T23:33:15.293Z,21.70
2019-02-24T23:35:50.752Z,20.48
2019-02-24T23:38:19.935Z,16.93
2019-02-24T23:41:02.441Z,21.17
2019-02-24T23:43:38.358Z,22.62
2019-02-24T23:46:20.642Z,23.47
2019-02-24T23:48:56.363Z,24.30
2019-02-24T23:51:38.731Z,24.20
2019-02-24T23:54:07.902Z,18.80
2019-02-24T23:56:43.687Z,25.82
2019-02-24T23:59:19.247Z,24.45
